sensor_id;sensor_type;location;lat;lon;timestamp;P1;durP1;ratioP1;P2;durP2;ratioP2
26080;SDS011;13991;51.174;4.438;2023-08-06T00:00:43;11.07;;;1.57;;
26080;SDS011;13991;51.174;4.438;2023-08-06T00:03:12;6.43;;;1.30;;
26080;SDS011;13991;51.174;4.438;2023-08-06T00:05:41;9.80;;;1.37;;
26080;SDS011;13991;51.174;4.438;2023-08-06T00:08:09;6.97;;;1.20;;
26080;SDS011;13991;51.174;4.438;2023-08-06T00:10:36;6.73;;;1.10;;
26080;SDS011;13991;51.174;4.438;2023-08-06T00:13:02;8.37;;;1.57;;
26080;SDS011;13991;51.174;4.438;2023-08-06T00:15:27;4.63;;;1.30;;
26080;SDS011;13991;51.174;4.438;2023-08-06T00:17:54;4.77;;;1.30;;
26080;SDS011;13991;51.174;4.438;2023-08-06T00:20:20;3.87;;;0.87;;
26080;SDS011;13991;51.174;4.438;2023-08-06T00:22:46;3.37;;;0.90;;
26080;SDS011;13991;51.174;4.438;2023-08-06T00:25:12;2.47;;;1.07;;
26080;SDS011;13991;51.174;4.438;2023-08-06T00:27:38;4.63;;;0.90;;
26080;SDS011;13991;51.174;4.438;2023-08-06T00:30:06;7.33;;;1.27;;
26080;SDS011;13991;51.174;4.438;2023-08-06T00:32:32;8.10;;;1.17;;
26080;SDS011;13991;51.174;4.438;2023-08-06T00:35:01;6.50;;;1.37;;
26080;SDS011;13991;51.174;4.438;2023-08-06T00:37:28;6.67;;;1.50;;
26080;SDS011;13991;51.174;4.438;2023-08-06T00:39:55;4.93;;;0.90;;
26080;SDS011;13991;51.174;4.438;2023-08-06T00:42:21;4.43;;;1.97;;
26080;SDS011;13991;51.174;4.438;2023-08-06T00:44:47;9.13;;;1.27;;
26080;SDS011;13991;51.174;4.438;2023-08-06T00:47:14;9.03;;;1.40;;
26080;SDS011;13991;51.174;4.438;2023-08-06T00:49:40;4.50;;;1.30;;
26080;SDS011;13991;51.174;4.438;2023-08-06T00:52:07;3.30;;;1.20;;
26080;SDS011;13991;51.174;4.438;2023-08-06T00:54:33;2.97;;;1.07;;
26080;SDS011;13991;51.174;4.438;2023-08-06T00:57:01;11.43;;;1.43;;
26080;SDS011;13991;51.174;4.438;2023-08-06T00:59:30;5.50;;;1.33;;
26080;SDS011;13991;51.174;4.438;2023-08-06T01:01:57;6.97;;;1.23;;
26080;SDS011;13991;51.174;4.438;2023-08-06T01:04:24;4.97;;;1.60;;
26080;SDS011;13991;51.174;4.438;2023-08-06T01:13:06;5.90;;;1.97;;
26080;SDS011;13991;51.174;4.438;2023-08-06T01:15:55;5.13;;;1.80;;
26080;SDS011;13991;51.174;4.438;2023-08-06T01:18:24;7.47;;;1.70;;
26080;SDS011;13991;51.174;4.438;2023-08-06T01:20:53;10.27;;;2.33;;
26080;SDS011;13991;51.174;4.438;2023-08-06T01:23:19;6.53;;;1.67;;
26080;SDS011;13991;51.174;4.438;2023-08-06T01:25:50;9.57;;;1.97;;
26080;SDS011;13991;51.174;4.438;2023-08-06T01:28:44;5.47;;;2.13;;
26080;SDS011;13991;51.174;4.438;2023-08-06T01:31:22;4.97;;;2.23;;
26080;SDS011;13991;51.174;4.438;2023-08-06T01:33:51;5.30;;;2.30;;
26080;SDS011;13991;51.174;4.438;2023-08-06T01:36:19;7.20;;;2.27;;
26080;SDS011;13991;51.174;4.438;2023-08-06T01:38:45;7.23;;;2.30;;
26080;SDS011;13991;51.174;4.438;2023-08-06T01:41:11;6.47;;;2.00;;
26080;SDS011;13991;51.174;4.438;2023-08-06T01:43:38;7.37;;;2.30;;
26080;SDS011;13991;51.174;4.438;2023-08-06T01:46:03;10.27;;;2.50;;
26080;SDS011;13991;51.174;4.438;2023-08-06T01:48:29;6.80;;;3.30;;
26080;SDS011;13991;51.174;4.438;2023-08-06T01:50:55;6.10;;;2.27;;
26080;SDS011;13991;51.174;4.438;2023-08-06T01:53:20;7.20;;;2.83;;
26080;SDS011;13991;51.174;4.438;2023-08-06T01:55:49;5.70;;;2.90;;
26080;SDS011;13991;51.174;4.438;2023-08-06T01:58:15;6.73;;;3.60;;
26080;SDS011;13991;51.174;4.438;2023-08-06T02:00:41;7.67;;;2.90;;
26080;SDS011;13991;51.174;4.438;2023-08-06T02:03:09;9.87;;;2.70;;
26080;SDS011;13991;51.174;4.438;2023-08-06T02:05:34;11.97;;;2.90;;
26080;SDS011;13991;51.174;4.438;2023-08-06T02:08:00;10.97;;;2.57;;
26080;SDS011;13991;51.174;4.438;2023-08-06T02:10:26;9.30;;;3.40;;
26080;SDS011;13991;51.174;4.438;2023-08-06T02:12:51;11.67;;;3.00;;
26080;SDS011;13991;51.174;4.438;2023-08-06T02:15:19;10.93;;;3.27;;
26080;SDS011;13991;51.174;4.438;2023-08-06T02:17:45;7.57;;;3.30;;
26080;SDS011;13991;51.174;4.438;2023-08-06T02:20:12;7.77;;;3.50;;
26080;SDS011;13991;51.174;4.438;2023-08-06T02:22:38;12.27;;;3.50;;
26080;SDS011;13991;51.174;4.438;2023-08-06T02:25:04;18.17;;;4.07;;
26080;SDS011;13991;51.174;4.438;2023-08-06T02:27:31;6.67;;;3.07;;
26080;SDS011;13991;51.174;4.438;2023-08-06T02:29:57;8.37;;;3.03;;
26080;SDS011;13991;51.174;4.438;2023-08-06T02:32:25;7.83;;;3.37;;
26080;SDS011;13991;51.174;4.438;2023-08-06T02:34:51;29.50;;;3.83;;
26080;SDS011;13991;51.174;4.438;2023-08-06T02:37:18;12.80;;;3.67;;
26080;SDS011;13991;51.174;4.438;2023-08-06T02:39:44;6.70;;;3.23;;
26080;SDS011;13991;51.174;4.438;2023-08-06T02:42:10;12.67;;;3.97;;
26080;SDS011;13991;51.174;4.438;2023-08-06T02:44:36;11.83;;;3.73;;
26080;SDS011;13991;51.174;4.438;2023-08-06T02:47:02;12.73;;;3.83;;
26080;SDS011;13991;51.174;4.438;2023-08-06T02:49:29;13.97;;;3.97;;
26080;SDS011;13991;51.174;4.438;2023-08-06T02:51:55;14.17;;;4.67;;
26080;SDS011;13991;51.174;4.438;2023-08-06T02:54:21;10.63;;;5.10;;
26080;SDS011;13991;51.174;4.438;2023-08-06T02:56:49;14.70;;;5.03;;
26080;SDS011;13991;51.174;4.438;2023-08-06T02:59:16;9.67;;;5.10;;
26080;SDS011;13991;51.174;4.438;2023-08-06T03:01:42;11.90;;;5.40;;
26080;SDS011;13991;51.174;4.438;2023-08-06T03:04:08;13.73;;;5.97;;
26080;SDS011;13991;51.174;4.438;2023-08-06T03:06:34;10.43;;;5.30;;
26080;SDS011;13991;51.174;4.438;2023-08-06T03:08:59;15.50;;;6.43;;
26080;SDS011;13991;51.174;4.438;2023-08-06T03:11:25;12.63;;;6.23;;
26080;SDS011;13991;51.174;4.438;2023-08-06T03:13:51;12.60;;;6.03;;
26080;SDS011;13991;51.174;4.438;2023-08-06T03:16:18;13.67;;;5.93;;
26080;SDS011;13991;51.174;4.438;2023-08-06T03:18:45;10.83;;;5.63;;
26080;SDS011;13991;51.174;4.438;2023-08-06T03:21:12;7.97;;;4.77;;
26080;SDS011;13991;51.174;4.438;2023-08-06T03:23:38;8.23;;;5.47;;
26080;SDS011;13991;51.174;4.438;2023-08-06T03:26:04;9.87;;;5.27;;
26080;SDS011;13991;51.174;4.438;2023-08-06T03:28:31;9.53;;;5.13;;
26080;SDS011;13991;51.174;4.438;2023-08-06T03:31:00;12.33;;;5.93;;
26080;SDS011;13991;51.174;4.438;2023-08-06T03:33:30;12.87;;;5.03;;
26080;SDS011;13991;51.174;4.438;2023-08-06T03:35:58;9.57;;;5.13;;
26080;SDS011;13991;51.174;4.438;2023-08-06T03:38:24;8.97;;;5.53;;
26080;SDS011;13991;51.174;4.438;2023-08-06T03:40:51;4.43;;;2.80;;
26080;SDS011;13991;51.174;4.438;2023-08-06T03:43:17;2.00;;;1.10;;
26080;SDS011;13991;51.174;4.438;2023-08-06T03:45:44;0.80;;;0.47;;
26080;SDS011;13991;51.174;4.438;2023-08-06T03:48:11;0.50;;;0.30;;
26080;SDS011;13991;51.174;4.438;2023-08-06T03:50:37;0.77;;;0.30;;
26080;SDS011;13991;51.174;4.438;2023-08-06T03:53:11;0.50;;;0.30;;
26080;SDS011;13991;51.174;4.438;2023-08-06T03:55:37;0.63;;;0.20;;
26080;SDS011;13991;51.174;4.438;2023-08-06T03:58:02;4.50;;;0.27;;
26080;SDS011;13991;51.174;4.438;2023-08-06T04:00:35;1.00;;;0.30;;
26080;SDS011;13991;51.174;4.438;2023-08-06T04:03:05;2.80;;;0.40;;
26080;SDS011;13991;51.174;4.438;2023-08-06T04:05:31;1.50;;;0.30;;
26080;SDS011;13991;51.174;4.438;2023-08-06T04:07:58;0.67;;;0.30;;
26080;SDS011;13991;51.174;4.438;2023-08-06T04:10:25;0.30;;;0.30;;
26080;SDS011;13991;51.174;4.438;2023-08-06T04:12:51;1.67;;;0.40;;
26080;SDS011;13991;51.174;4.438;2023-08-06T04:15:17;0.67;;;0.40;;
26080;SDS011;13991;51.174;4.438;2023-08-06T04:17:52;0.30;;;0.30;;
26080;SDS011;13991;51.174;4.438;2023-08-06T04:20:21;1.13;;;0.50;;
26080;SDS011;13991;51.174;4.438;2023-08-06T04:22:49;3.80;;;0.53;;
26080;SDS011;13991;51.174;4.438;2023-08-06T04:25:15;5.50;;;1.03;;
26080;SDS011;13991;51.174;4.438;2023-08-06T04:27:46;3.77;;;1.37;;
26080;SDS011;13991;51.174;4.438;2023-08-06T04:30:14;11.97;;;1.97;;
26080;SDS011;13991;51.174;4.438;2023-08-06T04:32:40;6.07;;;2.60;;
26080;SDS011;13991;51.174;4.438;2023-08-06T04:35:09;18.40;;;4.73;;
26080;SDS011;13991;51.174;4.438;2023-08-06T04:37:35;13.73;;;5.00;;
26080;SDS011;13991;51.174;4.438;2023-08-06T04:40:01;13.63;;;4.97;;
26080;SDS011;13991;51.174;4.438;2023-08-06T04:42:27;22.27;;;5.80;;
26080;SDS011;13991;51.174;4.438;2023-08-06T04:44:53;18.40;;;5.67;;
26080;SDS011;13991;51.174;4.438;2023-08-06T04:47:20;21.83;;;5.03;;
26080;SDS011;13991;51.174;4.438;2023-08-06T04:49:45;15.37;;;5.33;;
26080;SDS011;13991;51.174;4.438;2023-08-06T04:52:15;28.07;;;4.97;;
26080;SDS011;13991;51.174;4.438;2023-08-06T04:54:43;17.47;;;5.13;;
26080;SDS011;13991;51.174;4.438;2023-08-06T04:57:09;17.43;;;5.77;;
26080;SDS011;13991;51.174;4.438;2023-08-06T04:59:35;11.00;;;3.00;;
26080;SDS011;13991;51.174;4.438;2023-08-06T05:02:01;11.30;;;3.07;;
26080;SDS011;13991;51.174;4.438;2023-08-06T05:04:27;24.30;;;3.97;;
26080;SDS011;13991;51.174;4.438;2023-08-06T05:06:54;15.53;;;3.83;;
26080;SDS011;13991;51.174;4.438;2023-08-06T05:09:19;18.83;;;3.33;;
26080;SDS011;13991;51.174;4.438;2023-08-06T05:11:46;14.90;;;2.37;;
26080;SDS011;13991;51.174;4.438;2023-08-06T05:14:12;14.63;;;2.80;;
26080;SDS011;13991;51.174;4.438;2023-08-06T05:16:38;12.73;;;2.63;;
26080;SDS011;13991;51.174;4.438;2023-08-06T05:19:05;11.43;;;2.83;;
26080;SDS011;13991;51.174;4.438;2023-08-06T05:21:32;12.90;;;3.00;;
26080;SDS011;13991;51.174;4.438;2023-08-06T05:23:57;13.03;;;3.17;;
26080;SDS011;13991;51.174;4.438;2023-08-06T05:26:24;9.20;;;2.30;;
26080;SDS011;13991;51.174;4.438;2023-08-06T05:28:49;11.13;;;2.17;;
26080;SDS011;13991;51.174;4.438;2023-08-06T05:31:15;22.60;;;2.57;;
26080;SDS011;13991;51.174;4.438;2023-08-06T05:33:41;13.07;;;2.37;;
26080;SDS011;13991;51.174;4.438;2023-08-06T05:36:06;18.77;;;3.13;;
26080;SDS011;13991;51.174;4.438;2023-08-06T05:38:32;22.33;;;3.10;;
26080;SDS011;13991;51.174;4.438;2023-08-06T05:40:58;22.27;;;3.27;;
26080;SDS011;13991;51.174;4.438;2023-08-06T05:43:25;13.37;;;2.27;;
26080;SDS011;13991;51.174;4.438;2023-08-06T05:45:50;19.17;;;2.60;;
26080;SDS011;13991;51.174;4.438;2023-08-06T05:48:17;15.60;;;2.73;;
26080;SDS011;13991;51.174;4.438;2023-08-06T05:50:44;20.80;;;3.63;;
26080;SDS011;13991;51.174;4.438;2023-08-06T05:53:09;19.97;;;3.00;;
26080;SDS011;13991;51.174;4.438;2023-08-06T05:55:36;19.40;;;3.47;;
26080;SDS011;13991;51.174;4.438;2023-08-06T05:58:03;15.40;;;2.70;;
26080;SDS011;13991;51.174;4.438;2023-08-06T06:00:29;15.13;;;2.50;;
26080;SDS011;13991;51.174;4.438;2023-08-06T06:02:58;14.33;;;2.40;;
26080;SDS011;13991;51.174;4.438;2023-08-06T06:05:23;9.60;;;2.63;;
26080;SDS011;13991;51.174;4.438;2023-08-06T06:07:50;13.20;;;2.50;;
26080;SDS011;13991;51.174;4.438;2023-08-06T06:10:16;12.53;;;2.33;;
26080;SDS011;13991;51.174;4.438;2023-08-06T06:12:43;9.73;;;2.30;;
26080;SDS011;13991;51.174;4.438;2023-08-06T06:15:12;19.87;;;3.13;;
26080;SDS011;13991;51.174;4.438;2023-08-06T06:17:38;10.53;;;2.87;;
26080;SDS011;13991;51.174;4.438;2023-08-06T06:20:03;20.67;;;2.40;;
26080;SDS011;13991;51.174;4.438;2023-08-06T06:22:30;13.77;;;2.97;;
26080;SDS011;13991;51.174;4.438;2023-08-06T06:24:56;8.63;;;2.10;;
26080;SDS011;13991;51.174;4.438;2023-08-06T06:27:21;14.93;;;2.83;;
26080;SDS011;13991;51.174;4.438;2023-08-06T06:29:47;12.73;;;2.33;;
26080;SDS011;13991;51.174;4.438;2023-08-06T06:34:49;14.17;;;2.87;;
26080;SDS011;13991;51.174;4.438;2023-08-06T06:39:52;9.43;;;1.77;;
26080;SDS011;13991;51.174;4.438;2023-08-06T06:42:18;17.87;;;2.87;;
26080;SDS011;13991;51.174;4.438;2023-08-06T06:44:43;8.83;;;2.53;;
26080;SDS011;13991;51.174;4.438;2023-08-06T06:47:09;13.83;;;2.97;;
26080;SDS011;13991;51.174;4.438;2023-08-06T06:49:35;19.37;;;3.00;;
26080;SDS011;13991;51.174;4.438;2023-08-06T06:52:01;12.23;;;3.10;;
26080;SDS011;13991;51.174;4.438;2023-08-06T06:54:28;11.33;;;2.30;;
26080;SDS011;13991;51.174;4.438;2023-08-06T06:56:54;15.07;;;2.60;;
26080;SDS011;13991;51.174;4.438;2023-08-06T06:59:19;9.90;;;2.80;;
26080;SDS011;13991;51.174;4.438;2023-08-06T07:01:45;10.70;;;2.47;;
26080;SDS011;13991;51.174;4.438;2023-08-06T07:04:12;14.67;;;2.83;;
26080;SDS011;13991;51.174;4.438;2023-08-06T07:06:38;6.27;;;1.80;;
26080;SDS011;13991;51.174;4.438;2023-08-06T07:09:04;4.60;;;1.20;;
26080;SDS011;13991;51.174;4.438;2023-08-06T07:11:31;15.80;;;2.03;;
26080;SDS011;13991;51.174;4.438;2023-08-06T07:13:57;6.30;;;0.80;;
26080;SDS011;13991;51.174;4.438;2023-08-06T07:16:24;4.87;;;0.80;;
26080;SDS011;13991;51.174;4.438;2023-08-06T07:18:51;7.57;;;1.20;;
26080;SDS011;13991;51.174;4.438;2023-08-06T07:21:20;12.43;;;1.03;;
26080;SDS011;13991;51.174;4.438;2023-08-06T07:23:46;9.50;;;1.53;;
26080;SDS011;13991;51.174;4.438;2023-08-06T07:26:15;14.70;;;1.13;;
26080;SDS011;13991;51.174;4.438;2023-08-06T07:28:41;20.00;;;1.40;;
26080;SDS011;13991;51.174;4.438;2023-08-06T07:31:07;12.97;;;1.07;;
26080;SDS011;13991;51.174;4.438;2023-08-06T07:33:33;11.80;;;1.40;;
26080;SDS011;13991;51.174;4.438;2023-08-06T07:36:06;15.10;;;1.67;;
26080;SDS011;13991;51.174;4.438;2023-08-06T07:38:36;17.93;;;2.00;;
26080;SDS011;13991;51.174;4.438;2023-08-06T07:41:02;14.30;;;1.77;;
26080;SDS011;13991;51.174;4.438;2023-08-06T07:43:27;17.77;;;2.23;;
26080;SDS011;13991;51.174;4.438;2023-08-06T07:45:53;22.33;;;1.80;;
26080;SDS011;13991;51.174;4.438;2023-08-06T07:48:19;15.40;;;1.37;;
26080;SDS011;13991;51.174;4.438;2023-08-06T07:50:45;10.70;;;1.57;;
26080;SDS011;13991;51.174;4.438;2023-08-06T07:53:15;14.33;;;1.50;;
26080;SDS011;13991;51.174;4.438;2023-08-06T07:55:41;16.77;;;1.30;;
26080;SDS011;13991;51.174;4.438;2023-08-06T07:58:07;9.67;;;1.23;;
26080;SDS011;13991;51.174;4.438;2023-08-06T08:00:33;13.43;;;1.40;;
26080;SDS011;13991;51.174;4.438;2023-08-06T08:03:00;22.87;;;3.33;;
26080;SDS011;13991;51.174;4.438;2023-08-06T08:05:26;16.20;;;1.73;;
26080;SDS011;13991;51.174;4.438;2023-08-06T08:07:52;23.13;;;1.10;;
26080;SDS011;13991;51.174;4.438;2023-08-06T08:10:18;20.00;;;1.90;;
26080;SDS011;13991;51.174;4.438;2023-08-06T08:12:46;10.27;;;1.00;;
26080;SDS011;13991;51.174;4.438;2023-08-06T08:15:12;13.57;;;0.90;;
26080;SDS011;13991;51.174;4.438;2023-08-06T08:17:38;8.97;;;1.23;;
26080;SDS011;13991;51.174;4.438;2023-08-06T08:20:04;9.30;;;1.33;;
26080;SDS011;13991;51.174;4.438;2023-08-06T08:22:30;14.87;;;1.20;;
26080;SDS011;13991;51.174;4.438;2023-08-06T08:24:57;12.10;;;1.53;;
26080;SDS011;13991;51.174;4.438;2023-08-06T08:27:23;13.73;;;1.57;;
26080;SDS011;13991;51.174;4.438;2023-08-06T08:29:48;12.37;;;1.30;;
26080;SDS011;13991;51.174;4.438;2023-08-06T08:43:40;23.77;;;1.30;;
26080;SDS011;13991;51.174;4.438;2023-08-06T08:46:07;13.30;;;1.70;;
26080;SDS011;13991;51.174;4.438;2023-08-06T08:48:36;20.40;;;2.47;;
26080;SDS011;13991;51.174;4.438;2023-08-06T08:51:03;9.90;;;1.27;;
26080;SDS011;13991;51.174;4.438;2023-08-06T08:53:33;18.00;;;1.50;;
26080;SDS011;13991;51.174;4.438;2023-08-06T08:56:00;25.17;;;1.97;;
26080;SDS011;13991;51.174;4.438;2023-08-06T08:58:27;9.17;;;1.27;;
26080;SDS011;13991;51.174;4.438;2023-08-06T09:00:53;27.27;;;2.13;;
26080;SDS011;13991;51.174;4.438;2023-08-06T09:03:19;11.70;;;1.43;;
26080;SDS011;13991;51.174;4.438;2023-08-06T09:05:45;27.00;;;1.60;;
26080;SDS011;13991;51.174;4.438;2023-08-06T09:08:15;11.30;;;1.43;;
26080;SDS011;13991;51.174;4.438;2023-08-06T09:10:44;18.83;;;1.67;;
26080;SDS011;13991;51.174;4.438;2023-08-06T09:13:13;18.60;;;1.30;;
26080;SDS011;13991;51.174;4.438;2023-08-06T09:15:39;11.90;;;1.50;;
26080;SDS011;13991;51.174;4.438;2023-08-06T09:18:11;12.63;;;1.13;;
26080;SDS011;13991;51.174;4.438;2023-08-06T09:20:38;13.17;;;1.33;;
26080;SDS011;13991;51.174;4.438;2023-08-06T09:23:08;14.00;;;1.33;;
26080;SDS011;13991;51.174;4.438;2023-08-06T09:25:37;9.03;;;0.97;;
26080;SDS011;13991;51.174;4.438;2023-08-06T09:28:07;14.23;;;1.07;;
26080;SDS011;13991;51.174;4.438;2023-08-06T09:30:34;7.20;;;0.80;;
26080;SDS011;13991;51.174;4.438;2023-08-06T09:33:02;6.77;;;0.73;;
26080;SDS011;13991;51.174;4.438;2023-08-06T09:35:29;14.50;;;0.80;;
26080;SDS011;13991;51.174;4.438;2023-08-06T09:38:06;6.67;;;0.53;;
26080;SDS011;13991;51.174;4.438;2023-08-06T09:40:32;10.93;;;1.10;;
26080;SDS011;13991;51.174;4.438;2023-08-06T09:42:59;5.27;;;0.63;;
26080;SDS011;13991;51.174;4.438;2023-08-06T09:45:32;13.20;;;1.23;;
26080;SDS011;13991;51.174;4.438;2023-08-06T09:48:00;9.03;;;1.00;;
26080;SDS011;13991;51.174;4.438;2023-08-06T09:50:30;9.63;;;1.23;;
26080;SDS011;13991;51.174;4.438;2023-08-06T09:52:59;7.33;;;0.60;;
26080;SDS011;13991;51.174;4.438;2023-08-06T09:55:26;16.87;;;1.60;;
26080;SDS011;13991;51.174;4.438;2023-08-06T09:57:53;11.73;;;1.43;;
26080;SDS011;13991;51.174;4.438;2023-08-06T10:00:19;12.33;;;1.30;;
26080;SDS011;13991;51.174;4.438;2023-08-06T10:02:48;8.63;;;1.23;;
26080;SDS011;13991;51.174;4.438;2023-08-06T10:05:16;13.97;;;1.13;;
26080;SDS011;13991;51.174;4.438;2023-08-06T10:07:43;4.20;;;1.07;;
26080;SDS011;13991;51.174;4.438;2023-08-06T10:10:12;11.47;;;1.47;;
26080;SDS011;13991;51.174;4.438;2023-08-06T10:12:46;21.57;;;1.97;;
26080;SDS011;13991;51.174;4.438;2023-08-06T10:15:15;22.30;;;1.77;;
26080;SDS011;13991;51.174;4.438;2023-08-06T10:17:43;15.97;;;1.17;;
26080;SDS011;13991;51.174;4.438;2023-08-06T10:20:12;13.00;;;1.20;;
26080;SDS011;13991;51.174;4.438;2023-08-06T10:22:42;14.93;;;1.00;;
26080;SDS011;13991;51.174;4.438;2023-08-06T10:25:13;20.87;;;1.37;;
26080;SDS011;13991;51.174;4.438;2023-08-06T10:30:30;19.73;;;1.47;;
26080;SDS011;13991;51.174;4.438;2023-08-06T10:32:57;16.43;;;1.13;;
26080;SDS011;13991;51.174;4.438;2023-08-06T10:35:37;14.20;;;1.57;;
26080;SDS011;13991;51.174;4.438;2023-08-06T10:40:41;12.83;;;0.70;;
26080;SDS011;13991;51.174;4.438;2023-08-06T10:43:24;8.73;;;0.80;;
26080;SDS011;13991;51.174;4.438;2023-08-06T10:46:00;12.70;;;0.47;;
26080;SDS011;13991;51.174;4.438;2023-08-06T10:51:01;8.70;;;0.90;;
26080;SDS011;13991;51.174;4.438;2023-08-06T10:53:28;12.27;;;1.00;;
26080;SDS011;13991;51.174;4.438;2023-08-06T10:55:55;3.20;;;0.30;;
26080;SDS011;13991;51.174;4.438;2023-08-06T10:58:21;4.47;;;0.77;;
26080;SDS011;13991;51.174;4.438;2023-08-06T11:00:47;8.60;;;0.70;;
26080;SDS011;13991;51.174;4.438;2023-08-06T11:03:13;9.73;;;1.03;;
26080;SDS011;13991;51.174;4.438;2023-08-06T11:05:40;6.30;;;0.70;;
26080;SDS011;13991;51.174;4.438;2023-08-06T11:08:20;12.80;;;0.80;;
26080;SDS011;13991;51.174;4.438;2023-08-06T11:10:51;4.63;;;0.40;;
26080;SDS011;13991;51.174;4.438;2023-08-06T11:13:17;5.17;;;0.50;;
26080;SDS011;13991;51.174;4.438;2023-08-06T11:15:46;7.67;;;0.67;;
26080;SDS011;13991;51.174;4.438;2023-08-06T11:18:12;12.30;;;0.87;;
26080;SDS011;13991;51.174;4.438;2023-08-06T11:20:38;7.80;;;0.47;;
26080;SDS011;13991;51.174;4.438;2023-08-06T11:23:05;9.43;;;1.23;;
26080;SDS011;13991;51.174;4.438;2023-08-06T11:25:35;5.03;;;1.13;;
26080;SDS011;13991;51.174;4.438;2023-08-06T11:28:03;4.90;;;0.60;;
26080;SDS011;13991;51.174;4.438;2023-08-06T11:30:28;4.70;;;0.60;;
26080;SDS011;13991;51.174;4.438;2023-08-06T11:32:55;9.90;;;0.90;;
26080;SDS011;13991;51.174;4.438;2023-08-06T11:35:22;14.63;;;1.20;;
26080;SDS011;13991;51.174;4.438;2023-08-06T11:37:49;13.73;;;1.73;;
26080;SDS011;13991;51.174;4.438;2023-08-06T11:40:14;17.13;;;2.13;;
26080;SDS011;13991;51.174;4.438;2023-08-06T11:42:42;11.30;;;1.20;;
26080;SDS011;13991;51.174;4.438;2023-08-06T11:45:11;9.10;;;1.20;;
26080;SDS011;13991;51.174;4.438;2023-08-06T11:47:40;11.27;;;1.37;;
26080;SDS011;13991;51.174;4.438;2023-08-06T11:50:06;18.53;;;1.87;;
26080;SDS011;13991;51.174;4.438;2023-08-06T11:52:31;9.00;;;1.73;;
26080;SDS011;13991;51.174;4.438;2023-08-06T11:57:31;10.53;;;1.77;;
26080;SDS011;13991;51.174;4.438;2023-08-06T12:00:07;18.07;;;2.10;;
26080;SDS011;13991;51.174;4.438;2023-08-06T12:02:33;17.93;;;1.70;;
26080;SDS011;13991;51.174;4.438;2023-08-06T12:05:16;17.40;;;1.83;;
26080;SDS011;13991;51.174;4.438;2023-08-06T12:08:15;23.57;;;2.20;;
26080;SDS011;13991;51.174;4.438;2023-08-06T12:10:41;16.23;;;2.40;;
26080;SDS011;13991;51.174;4.438;2023-08-06T12:13:07;20.30;;;2.10;;
26080;SDS011;13991;51.174;4.438;2023-08-06T12:15:32;12.50;;;1.40;;
26080;SDS011;13991;51.174;4.438;2023-08-06T12:17:58;28.03;;;2.07;;
26080;SDS011;13991;51.174;4.438;2023-08-06T12:20:24;18.67;;;1.73;;
26080;SDS011;13991;51.174;4.438;2023-08-06T12:22:51;19.33;;;2.40;;
26080;SDS011;13991;51.174;4.438;2023-08-06T12:25:17;14.60;;;1.97;;
26080;SDS011;13991;51.174;4.438;2023-08-06T12:27:43;16.43;;;1.80;;
26080;SDS011;13991;51.174;4.438;2023-08-06T12:30:11;18.60;;;2.17;;
26080;SDS011;13991;51.174;4.438;2023-08-06T12:32:37;27.23;;;2.83;;
26080;SDS011;13991;51.174;4.438;2023-08-06T12:35:05;19.27;;;1.63;;
26080;SDS011;13991;51.174;4.438;2023-08-06T12:37:32;24.27;;;2.27;;
26080;SDS011;13991;51.174;4.438;2023-08-06T12:39:59;16.30;;;2.00;;
26080;SDS011;13991;51.174;4.438;2023-08-06T12:42:27;23.63;;;1.77;;
26080;SDS011;13991;51.174;4.438;2023-08-06T12:44:53;29.37;;;2.67;;
26080;SDS011;13991;51.174;4.438;2023-08-06T12:47:18;13.33;;;2.00;;
26080;SDS011;13991;51.174;4.438;2023-08-06T12:49:45;15.87;;;2.13;;
26080;SDS011;13991;51.174;4.438;2023-08-06T12:52:11;18.03;;;1.60;;
26080;SDS011;13991;51.174;4.438;2023-08-06T12:54:40;9.83;;;1.10;;
26080;SDS011;13991;51.174;4.438;2023-08-06T12:57:07;6.80;;;0.90;;
26080;SDS011;13991;51.174;4.438;2023-08-06T12:59:33;15.43;;;0.90;;
26080;SDS011;13991;51.174;4.438;2023-08-06T13:02:01;6.53;;;0.97;;
26080;SDS011;13991;51.174;4.438;2023-08-06T13:04:27;6.23;;;0.80;;
26080;SDS011;13991;51.174;4.438;2023-08-06T13:06:53;14.00;;;1.17;;
26080;SDS011;13991;51.174;4.438;2023-08-06T13:09:19;7.87;;;0.93;;
26080;SDS011;13991;51.174;4.438;2023-08-06T13:11:47;9.23;;;0.80;;
26080;SDS011;13991;51.174;4.438;2023-08-06T13:14:15;6.50;;;0.70;;
26080;SDS011;13991;51.174;4.438;2023-08-06T13:16:41;6.93;;;1.00;;
26080;SDS011;13991;51.174;4.438;2023-08-06T13:19:08;7.87;;;1.03;;
26080;SDS011;13991;51.174;4.438;2023-08-06T13:21:35;4.63;;;0.60;;
26080;SDS011;13991;51.174;4.438;2023-08-06T13:24:02;4.93;;;0.73;;
26080;SDS011;13991;51.174;4.438;2023-08-06T13:26:31;10.83;;;0.97;;
26080;SDS011;13991;51.174;4.438;2023-08-06T13:29:00;7.33;;;1.10;;
26080;SDS011;13991;51.174;4.438;2023-08-06T13:31:26;3.97;;;0.40;;
26080;SDS011;13991;51.174;4.438;2023-08-06T13:33:56;6.30;;;0.80;;
26080;SDS011;13991;51.174;4.438;2023-08-06T13:36:26;9.00;;;0.90;;
26080;SDS011;13991;51.174;4.438;2023-08-06T13:38:52;6.53;;;0.90;;
26080;SDS011;13991;51.174;4.438;2023-08-06T13:41:18;8.67;;;1.13;;
26080;SDS011;13991;51.174;4.438;2023-08-06T13:43:44;10.43;;;1.03;;
26080;SDS011;13991;51.174;4.438;2023-08-06T13:46:10;14.10;;;0.93;;
26080;SDS011;13991;51.174;4.438;2023-08-06T13:48:44;9.63;;;1.13;;
26080;SDS011;13991;51.174;4.438;2023-08-06T13:54:53;18.47;;;2.00;;
26080;SDS011;13991;51.174;4.438;2023-08-06T13:57:19;18.67;;;2.30;;
26080;SDS011;13991;51.174;4.438;2023-08-06T13:59:46;14.00;;;1.83;;
26080;SDS011;13991;51.174;4.438;2023-08-06T14:02:13;13.10;;;1.47;;
26080;SDS011;13991;51.174;4.438;2023-08-06T14:04:38;10.00;;;1.90;;
26080;SDS011;13991;51.174;4.438;2023-08-06T14:07:05;7.63;;;1.40;;
26080;SDS011;13991;51.174;4.438;2023-08-06T14:09:31;14.57;;;1.90;;
26080;SDS011;13991;51.174;4.438;2023-08-06T14:11:59;20.30;;;1.67;;
26080;SDS011;13991;51.174;4.438;2023-08-06T14:14:25;20.47;;;2.30;;
26080;SDS011;13991;51.174;4.438;2023-08-06T14:16:55;18.43;;;1.00;;
26080;SDS011;13991;51.174;4.438;2023-08-06T14:19:21;18.20;;;1.47;;
26080;SDS011;13991;51.174;4.438;2023-08-06T14:21:47;9.67;;;1.00;;
26080;SDS011;13991;51.174;4.438;2023-08-06T14:24:13;16.63;;;1.37;;
26080;SDS011;13991;51.174;4.438;2023-08-06T14:26:38;14.47;;;1.50;;
26080;SDS011;13991;51.174;4.438;2023-08-06T14:29:04;12.20;;;1.23;;
26080;SDS011;13991;51.174;4.438;2023-08-06T14:31:30;12.53;;;1.90;;
26080;SDS011;13991;51.174;4.438;2023-08-06T14:33:56;18.70;;;1.20;;
26080;SDS011;13991;51.174;4.438;2023-08-06T14:36:22;15.80;;;1.93;;
26080;SDS011;13991;51.174;4.438;2023-08-06T14:38:48;21.53;;;1.40;;
26080;SDS011;13991;51.174;4.438;2023-08-06T14:41:14;11.90;;;1.60;;
26080;SDS011;13991;51.174;4.438;2023-08-06T14:43:41;15.30;;;1.47;;
26080;SDS011;13991;51.174;4.438;2023-08-06T14:46:07;25.23;;;1.43;;
26080;SDS011;13991;51.174;4.438;2023-08-06T14:48:34;14.70;;;1.23;;
26080;SDS011;13991;51.174;4.438;2023-08-06T14:50:59;13.47;;;1.57;;
26080;SDS011;13991;51.174;4.438;2023-08-06T14:53:26;6.93;;;1.47;;
26080;SDS011;13991;51.174;4.438;2023-08-06T14:55:52;15.00;;;1.37;;
26080;SDS011;13991;51.174;4.438;2023-08-06T14:58:17;15.53;;;1.40;;
26080;SDS011;13991;51.174;4.438;2023-08-06T15:00:44;15.60;;;1.10;;
26080;SDS011;13991;51.174;4.438;2023-08-06T15:03:11;14.63;;;1.53;;
26080;SDS011;13991;51.174;4.438;2023-08-06T15:05:36;9.03;;;1.70;;
26080;SDS011;13991;51.174;4.438;2023-08-06T15:08:02;7.37;;;0.93;;
26080;SDS011;13991;51.174;4.438;2023-08-06T15:10:28;21.27;;;2.10;;
26080;SDS011;13991;51.174;4.438;2023-08-06T15:12:54;11.60;;;1.27;;
26080;SDS011;13991;51.174;4.438;2023-08-06T15:15:20;12.90;;;1.93;;
26080;SDS011;13991;51.174;4.438;2023-08-06T15:17:47;20.60;;;2.73;;